Airfield :
LOGIN :

Register | Disclaimer

   EN    FR    IT 

 










Legend :    VFR   Marginal VFR   IFR   Intensive IFR   Very Intensive IFR
Visi :
Ceiling :
>= 8 km
>= 3000ft
5 to 8 km
1000 to 3000 ft
1500m to 5 km
500 to 1000 ft
800 to 1500m
200 to 500 ft
< 800m
< 200 ft
Symbols :   Thunderstorms  Fog  Heavy snow  Heavy precipitations  Wind > 20 kt
SIGMETs :     Misc.  Thunderstorms  Icing  Turbulence  Mountain Waves  Volcanic Ashes






- Airport Elevation : 433 ft


LFOC - Chateaudun

CURRENT METAR :
  • 241330Z AUTO 03004KT 4900 BR ////// 04/02 Q1022

EXPIRED METARs :
  • 241300Z AUTO VRB02KT 5000 BR ////// 03/01 Q1022
  • 241230Z AUTO VRB03KT 5000 BR ////// 03/00 Q1022
  • 241200Z AUTO VRB02KT 5000 BR ////// 02/01 Q1022
  • 241130Z AUTO VRB01KT 5000 BR ////// 01/M00 Q1023
  • 241100Z AUTO 04003KT 010V070 4100 BR ////// 01/M00 Q1023

TAF TAF LFOC
Valid from the 24 at 09:00 until the 25 at 09:00 UTC


240800Z 2409/2509 03006KT 0500 FZFG VV///
BECMG 2410/2412 3000 BR OVC003
BECMG 2420/2422 0800 FG VV///



MET'MAP, your aeronautical weather chart ! - Copyright ORBIFLY December 2007 - Disclaimer

ORBIFLY MET'MAP TEAM :

Programming & Development : Alexandra Zaïnal
Concept & original design : Baudouin d'Aumeries
Assistance for programming : Marc-Olivier Méhu
Technical & hardware support : Manuel Goepfert

Contact : metmap@orbifly.com




SOURCES & CREDITS :

   NOAA